^^
Datos históricos de la estación: Murcia-Puente Tocinos
Diario Informe para Julio 13, 2019 Unidades:  Ambas    Ingés   Métrico
Diario Semanal Mensual Anual
  Máxima: Mínima: Promedio:
Temperatura: 84 °F /  28.9 °C 76.3 °F /  24.6 °C 79 °F /  26.1 °C
Punto de rocio: 72 °F /  22.2 °C 61.5 °F /  16.4 °C 67.8 °F /  19.9 °C
Humedad: 83.1% 47.8% 70%
Velocidad viento: 14mph /  22.5km/h - 6.6mph /  10.6km/h
Racha viento: 24.2mph /  38.9km/h - -
Viento- - ENE
Presión: 30.1 in /  1017.5 hPa 30 in /  1014.4 hPa -
Precipitación: 0 in /  0.0 mm    
 
 
Tabla de datos para Julio 13, 2019
Hora Temperatura Punto de rocio Presión Viento Velocidad viento Racha viento Humedad Intensidad lluvia(por hora) Nubes
00:04 79 °F /  26.1 °C 71.8 °F /  22.1 °C 30in /  1015.5hPa NE 5.9mph /  9.5km/h 12.7mph /  20.4km/h 79% 0in /  0.0mm
00:09 78.8 °F /  26 °C 71.8 °F /  22.1 °C 30in /  1015.5hPa ENE 5.9mph /  9.5km/h 13mph /  20.9km/h 79% 0in /  0.0mm
00:14 79 °F /  26.1 °C 72 °F /  22.2 °C 30in /  1015.5hPa NE 5.9mph /  9.5km/h 10mph /  16.1km/h 79% 0in /  0.0mm
00:19 79 °F /  26.1 °C 71.8 °F /  22.1 °C 30in /  1015.5hPa ENE 5.4mph /  8.7km/h 13.5mph /  21.7km/h 78.6% 0in /  0.0mm
00:24 79 °F /  26.1 °C 71.4 °F /  21.9 °C 30in /  1015.5hPa ENE 4mph /  6.5km/h 14mph /  22.5km/h 78% 0in /  0.0mm
00:29 78.6 °F /  25.9 °C 71.6 °F /  22 °C 30in /  1015.5hPa NE 6.2mph /  10km/h 9.2mph /  14.8km/h 79% 0in /  0.0mm
00:34 78.6 °F /  25.9 °C 71.6 °F /  22 °C 30in /  1015.6hPa NE 6.2mph /  10km/h 10mph /  16.1km/h 79% 0in /  0.0mm
00:39 78.6 °F /  25.9 °C 71.6 °F /  22 °C 30in /  1015.6hPa NE 6.2mph /  9.9km/h 13.8mph /  22.2km/h 79% 0in /  0.0mm
00:44 78.6 °F /  25.9 °C 71.6 °F /  22 °C 30in /  1015.6hPa NE 5.9mph /  9.5km/h 14mph /  22.5km/h 79% 0in /  0.0mm
00:49 78.6 °F /  25.9 °C 71.6 °F /  22 °C 30in /  1015.7hPa NE 5.6mph /  9km/h 9mph /  14.5km/h 79% 0in /  0.0mm
00:54 78.4 °F /  25.8 °C 71.6 °F /  22 °C 30in /  1015.7hPa NE 4.7mph /  7.6km/h 8.1mph /  13km/h 79% 0in /  0.0mm
00:59 78.4 °F /  25.8 °C 71.4 °F /  21.9 °C 30in /  1015.7hPa NE 4.7mph /  7.6km/h 8.1mph /  13km/h 79% 0in /  0.0mm
01:04 78.4 °F /  25.8 °C 71.6 °F /  22 °C 30in /  1015.8hPa NE 4.7mph /  7.6km/h 8.1mph /  13km/h 79.6% 0in /  0.0mm
01:09 78.4 °F /  25.8 °C 71.8 °F /  22.1 °C 30in /  1015.8hPa NE 4.6mph /  7.4km/h 10.4mph /  16.7km/h 80% 0in /  0.0mm
01:14 78.3 °F /  25.7 °C 71.6 °F /  22 °C 30in /  1015.8hPa NE 4.3mph /  6.9km/h 10.7mph /  17.2km/h 80.2% 0in /  0.0mm
01:19 78.3 °F /  25.7 °C 72 °F /  22.2 °C 30in /  1015.8hPa NE 4.4mph /  7.1km/h 11mph /  17.7km/h 81% 0in /  0.0mm
01:24 78.3 °F /  25.7 °C 72 °F /  22.2 °C 30in /  1015.8hPa ENE 4.7mph /  7.6km/h 7mph /  11.3km/h 81% 0in /  0.0mm
01:29 78.1 °F /  25.6 °C 71.8 °F /  22.1 °C 30in /  1015.8hPa NE 4.6mph /  7.4km/h 9.7mph /  15.6km/h 81% 0in /  0.0mm
01:34 78.1 °F /  25.6 °C 71.8 °F /  22.1 °C 30in /  1015.8hPa NE 4.3mph /  6.9km/h 10mph /  16.1km/h 81% 0in /  0.0mm
01:39 78.1 °F /  25.6 °C 71.8 °F /  22.1 °C 30in /  1015.8hPa NE 4.3mph /  6.9km/h 7mph /  11.3km/h 81% 0in /  0.0mm
01:44 77.9 °F /  25.5 °C 71.6 °F /  22 °C 30in /  1015.8hPa NE 4.3mph /  6.9km/h 7.4mph /  11.9km/h 81% 0in /  0.0mm
01:49 77.7 °F /  25.4 °C 71.4 °F /  21.9 °C 30in /  1015.8hPa NE 4.4mph /  7.1km/h 9.7mph /  15.6km/h 81% 0in /  0.0mm
01:54 77.7 °F /  25.4 °C 71.4 °F /  21.9 °C 30in /  1015.8hPa NE 4.7mph /  7.6km/h 10mph /  16.1km/h 81% 0in /  0.0mm
01:59 77.7 °F /  25.4 °C 71.4 °F /  21.9 °C 30in /  1015.8hPa NE 4.6mph /  7.4km/h 8.1mph /  13km/h 81% 0in /  0.0mm
02:04 77.7 °F /  25.4 °C 71.4 °F /  21.9 °C 30in /  1015.8hPa NE 4.3mph /  6.9km/h 8mph /  12.9km/h 81% 0in /  0.0mm
02:09 77.5 °F /  25.3 °C 71.1 °F /  21.7 °C 30in /  1015.8hPa NE 4.3mph /  6.9km/h 7.4mph /  11.9km/h 80.6% 0in /  0.0mm
02:14 77.5 °F /  25.3 °C 70.9 °F /  21.6 °C 30in /  1015.8hPa NE 4.3mph /  6.9km/h 8.1mph /  13km/h 80% 0in /  0.0mm
02:19 77.4 °F /  25.2 °C 70.7 °F /  21.5 °C 30in /  1015.8hPa NNE 4.4mph /  7.1km/h 8mph /  12.9km/h 80% 0in /  0.0mm
02:24 77.4 °F /  25.2 °C 70.7 °F /  21.5 °C 30in /  1015.6hPa NNE 4.7mph /  7.6km/h 7mph /  11.3km/h 80% 0in /  0.0mm
02:29 77.4 °F /  25.2 °C 70.7 °F /  21.5 °C 30in /  1015.6hPa NNE 4.5mph /  7.3km/h 6.9mph /  11.1km/h 80% 0in /  0.0mm
02:34 77.2 °F /  25.1 °C 70.5 °F /  21.4 °C 30in /  1015.6hPa NNE 4mph /  6.5km/h 7.4mph /  11.9km/h 80% 0in /  0.0mm
02:39 77.2 °F /  25.1 °C 70.5 °F /  21.4 °C 30in /  1015.5hPa NE 4.2mph /  6.7km/h 8.1mph /  13km/h 80% 0in /  0.0mm
02:44 77.2 °F /  25.1 °C 70.5 °F /  21.4 °C 30in /  1015.5hPa NNE 4.7mph /  7.6km/h 8.1mph /  13km/h 80% 0in /  0.0mm
02:49 77 °F /  25 °C 70.3 °F /  21.3 °C 30in /  1015.5hPa NE 4.5mph /  7.3km/h 8mph /  12.9km/h 80% 0in /  0.0mm
02:54 76.8 °F /  24.9 °C 70.2 °F /  21.2 °C 30in /  1015.5hPa NE 4mph /  6.5km/h 6.4mph /  10.3km/h 80% 0in /  0.0mm
02:59 76.8 °F /  24.9 °C 70.2 °F /  21.2 °C 30in /  1015.5hPa NE 4.1mph /  6.6km/h 7mph /  11.3km/h 80% 0in /  0.0mm
03:04 76.8 °F /  24.9 °C 70.2 °F /  21.2 °C 30in /  1015.5hPa NE 4.3mph /  6.9km/h 7.4mph /  11.9km/h 80% 0in /  0.0mm
03:09 76.8 °F /  24.9 °C 70.2 °F /  21.2 °C 30in /  1015.2hPa NE 4.4mph /  7.1km/h 7.4mph /  11.9km/h 80% 0in /  0.0mm
03:14 76.8 °F /  24.9 °C 70.2 °F /  21.2 °C 30in /  1015.2hPa NE 4.7mph /  7.6km/h 7mph /  11.3km/h 80% 0in /  0.0mm
03:19 76.8 °F /  24.9 °C 70.2 °F /  21.2 °C 30in /  1015.2hPa NE 4.5mph /  7.3km/h 7mph /  11.3km/h 80% 0in /  0.0mm
03:24 76.8 °F /  24.9 °C 70.2 °F /  21.2 °C 30in /  1015.1hPa NE 4mph /  6.5km/h 7mph /  11.3km/h 80% 0in /  0.0mm
03:29 76.6 °F /  24.8 °C 70 °F /  21.1 °C 30in /  1015.1hPa NE 4.1mph /  6.6km/h 8.1mph /  13km/h 80% 0in /  0.0mm
03:34 76.6 °F /  24.8 °C 70.2 °F /  21.2 °C 30in /  1015.1hPa NE 4.3mph /  6.9km/h 8mph /  12.9km/h 80.3% 0in /  0.0mm
03:39 76.6 °F /  24.8 °C 70.2 °F /  21.2 °C 30in /  1014.7hPa NNE 4.2mph /  6.8km/h 6.9mph /  11.1km/h 80.4% 0in /  0.0mm
03:44 76.6 °F /  24.8 °C 70.3 °F /  21.3 °C 30in /  1014.7hPa NNE 4mph /  6.5km/h 7mph /  11.3km/h 81% 0in /  0.0mm
03:49 76.6 °F /  24.8 °C 70.3 °F /  21.3 °C 30in /  1014.7hPa NNE 3.5mph /  5.6km/h 5mph /  8km/h 80.8% 0in /  0.0mm
03:54 76.6 °F /  24.8 °C 70 °F /  21.1 °C 30in /  1014.7hPa North 2mph /  3.2km/h 3.5mph /  5.6km/h 80% 0in /  0.0mm
03:59 76.6 °F /  24.8 °C 70 °F /  21.1 °C 30in /  1014.7hPa NO 1.9mph /  3.1km/h 4.6mph /  7.4km/h 80% 0in /  0.0mm
04:04 76.6 °F /  24.8 °C 70 °F /  21.1 °C 30in /  1014.7hPa NNO 1.8mph /  2.9km/h 5mph /  8km/h 80% 0in /  0.0mm
04:09 76.6 °F /  24.8 °C 69.8 °F /  21 °C 30in /  1014.6hPa NO 2.1mph /  3.3km/h 5mph /  8km/h 79.5% 0in /  0.0mm
04:14 76.6 °F /  24.8 °C 69.6 °F /  20.9 °C 30in /  1014.6hPa NO 2.9mph /  4.7km/h 5mph /  8km/h 79% 0in /  0.0mm
04:19 76.5 °F /  24.7 °C 69.6 °F /  20.9 °C 30in /  1014.6hPa NO 2.8mph /  4.5km/h 5mph /  8km/h 79.6% 0in /  0.0mm
04:24 76.5 °F /  24.7 °C 69.8 °F /  21 °C 30in /  1014.6hPa NNO 2.4mph /  3.9km/h 5mph /  8km/h 80% 0in /  0.0mm
04:29 76.5 °F /  24.7 °C 69.8 °F /  21 °C 30in /  1014.6hPa NO 2.4mph /  3.9km/h 5.2mph /  8.4km/h 80% 0in /  0.0mm
04:34 76.5 °F /  24.7 °C 69.8 °F /  21 °C 30in /  1014.6hPa NO 2.4mph /  3.9km/h 5mph /  8km/h 80% 0in /  0.0mm
04:39 76.5 °F /  24.7 °C 69.8 °F /  21 °C 30in /  1014.4hPa NO 2.5mph /  4.1km/h 5mph /  8km/h 80% 0in /  0.0mm
04:44 76.5 °F /  24.7 °C 69.8 °F /  21 °C 30in /  1014.4hPa NNO 2.9mph /  4.7km/h 5mph /  8km/h 80% 0in /  0.0mm
04:49 76.5 °F /  24.7 °C 69.8 °F /  21 °C 30in /  1014.4hPa NO 2.7mph /  4.4km/h 4.6mph /  7.4km/h 80% 0in /  0.0mm
04:54 76.5 °F /  24.7 °C 69.4 °F /  20.8 °C 30in /  1014.4hPa NO 2.4mph /  3.9km/h 5mph /  8km/h 79.1% 0in /  0.0mm
04:59 76.5 °F /  24.7 °C 69.6 °F /  20.9 °C 30in /  1014.4hPa NO 2.3mph /  3.7km/h 5mph /  8km/h 79.6% 0in /  0.0mm
05:04 76.5 °F /  24.7 °C 69.8 °F /  21 °C 30in /  1014.4hPa NO 2mph /  3.2km/h 3.5mph /  5.6km/h 80% 0in /  0.0mm
05:09 76.5 °F /  24.7 °C 69.6 °F /  20.9 °C 30in /  1014.4hPa NO 1.5mph /  2.4km/h 3mph /  4.8km/h 79.2% 0in /  0.0mm
05:14 76.5 °F /  24.7 °C 69.4 °F /  20.8 °C 30in /  1014.4hPa Calm   4.6mph /  7.4km/h 79% 0in /  0.0mm
05:19 76.5 °F /  24.7 °C 69.4 °F /  20.8 °C 30in /  1014.5hPa NO 0.4mph /  0.6km/h 5mph /  8km/h 79% 0in /  0.0mm
05:24 76.5 °F /  24.7 °C 69.4 °F /  20.8 °C 30in /  1014.5hPa NO 1.4mph /  2.2km/h 3mph /  4.8km/h 79% 0in /  0.0mm
05:29 76.5 °F /  24.7 °C 69.4 °F /  20.8 °C 30in /  1014.5hPa NO 1.4mph /  2.2km/h 3.6mph /  5.8km/h 79% 0in /  0.0mm
05:34 76.5 °F /  24.7 °C 69.4 °F /  20.8 °C 30in /  1014.5hPa NO 1.4mph /  2.2km/h 4mph /  6.4km/h 79% 0in /  0.0mm
05:39 76.5 °F /  24.7 °C 69.4 °F /  20.8 °C 30in /  1014.5hPa NO 1.4mph /  2.2km/h 3mph /  4.8km/h 79% 0in /  0.0mm
05:44 76.6 °F /  24.8 °C 69.6 °F /  20.9 °C 30in /  1014.5hPa NO 1.4mph /  2.2km/h 2mph /  3.2km/h 79% 0in /  0.0mm
05:49 76.6 °F /  24.8 °C 69.6 °F /  20.9 °C 30in /  1014.5hPa NO 1.1mph /  1.7km/h 3.6mph /  5.8km/h 79% 0in /  0.0mm
05:54 76.6 °F /  24.8 °C 69.6 °F /  20.9 °C 30in /  1014.5hPa Calm   4mph /  6.4km/h 79% 0in /  0.0mm
05:59 76.6 °F /  24.8 °C 69.6 °F /  20.9 °C 30in /  1014.5hPa Calm     79% 0in /  0.0mm
06:04 76.6 °F /  24.8 °C 69.6 °F /  20.9 °C 30in /  1014.6hPa Calm     79% 0in /  0.0mm
06:09 76.6 °F /  24.8 °C 69.6 °F /  20.9 °C 30in /  1014.6hPa Calm     79% 0in /  0.0mm
06:14 76.6 °F /  24.8 °C 69.6 °F /  20.9 °C 30in /  1014.6hPa Calm     79% 0in /  0.0mm
06:19 76.6 °F /  24.8 °C 69.6 °F /  20.9 °C 30in /  1014.6hPa Calm   3.5mph /  5.6km/h 79% 0in /  0.0mm
06:24 76.6 °F /  24.8 °C 69.6 °F /  20.9 °C 30in /  1014.5hPa Calm   4.6mph /  7.4km/h 79% 0in /  0.0mm
06:29 76.6 °F /  24.8 °C 69.6 °F /  20.9 °C 30in /  1014.5hPa NO 0.4mph /  0.6km/h 5mph /  8km/h 79% 0in /  0.0mm
06:34 76.6 °F /  24.8 °C 69.6 °F /  20.9 °C 30in /  1014.6hPa NO 1.4mph /  2.2km/h 3.6mph /  5.8km/h 79% 0in /  0.0mm
06:39 76.6 °F /  24.8 °C 69.6 °F /  20.9 °C 30in /  1014.6hPa NO 1.6mph /  2.5km/h 4mph /  6.4km/h 79% 0in /  0.0mm
06:44 76.6 °F /  24.8 °C 69.6 °F /  20.9 °C 30in /  1014.6hPa NO 2mph /  3.2km/h 3mph /  4.8km/h 79% 0in /  0.0mm
06:49 76.5 °F /  24.7 °C 69.4 °F /  20.8 °C 30in /  1014.6hPa NO 1.5mph /  2.4km/h 4mph /  6.4km/h 79% 0in /  0.0mm
06:54 76.5 °F /  24.7 °C 69.4 °F /  20.8 °C 30in /  1014.6hPa Calm   5mph /  8km/h 79% 0in /  0.0mm
06:59 76.5 °F /  24.7 °C 69.6 °F /  20.9 °C 30in /  1014.6hPa NNE 0.6mph /  1km/h 5mph /  8km/h 79.4% 0in /  0.0mm
07:04 76.3 °F /  24.6 °C 69.3 °F /  20.7 °C 30in /  1015.1hPa NE 2mph /  3.2km/h 5.8mph /  9.3km/h 79% 0in /  0.0mm
07:09 76.3 °F /  24.6 °C 67.1 °F /  19.5 °C 30in /  1015.1hPa NE 2.5mph /  4km/h 10.7mph /  17.2km/h 73.2% 0in /  0.0mm
07:14 76.6 °F /  24.8 °C 66.6 °F /  19.2 °C 30in /  1015.1hPa NNE 4mph /  6.5km/h 11mph /  17.7km/h 71.3% 0in /  0.0mm
07:19 76.8 °F /  24.9 °C 66.4 °F /  19.1 °C 30in /  1015.1hPa NNE 4.6mph /  7.4km/h 13.8mph /  22.2km/h 70% 0in /  0.0mm
07:24 76.8 °F /  24.9 °C 66.4 °F /  19.1 °C 30in /  1015.1hPa NNE 6.2mph /  10km/h 14mph /  22.5km/h 70% 0in /  0.0mm
07:29 76.8 °F /  24.9 °C 66.4 °F /  19.1 °C 30in /  1015.1hPa NE 6.3mph /  10.1km/h 12mph /  19.3km/h 70% 0in /  0.0mm
07:34 76.8 °F /  24.9 °C 66.6 °F /  19.2 °C 30in /  1015.3hPa NE 6.4mph /  10.3km/h 11mph /  17.7km/h 70.8% 0in /  0.0mm
07:39 76.6 °F /  24.8 °C 66.6 °F /  19.2 °C 30in /  1015.3hPa NE 6.3mph /  10.1km/h 10mph /  16.1km/h 71% 0in /  0.0mm
07:44 76.6 °F /  24.8 °C 66.4 °F /  19.1 °C 30in /  1015.3hPa NE 5.9mph /  9.5km/h 10.4mph /  16.7km/h 71% 0in /  0.0mm
07:49 76.5 °F /  24.7 °C 66.7 °F /  19.3 °C 30in /  1015.4hPa NE 6mph /  9.6km/h 10.4mph /  16.7km/h 72% 0in /  0.0mm
07:54 76.5 °F /  24.7 °C 66.7 °F /  19.3 °C 30in /  1015.4hPa NE 6.2mph /  10km/h 10mph /  16.1km/h 72% 0in /  0.0mm
07:59 76.5 °F /  24.7 °C 66.7 °F /  19.3 °C 30in /  1015.4hPa NE 6mph /  9.6km/h 10.7mph /  17.2km/h 72% 0in /  0.0mm
08:04 76.5 °F /  24.7 °C 67.3 °F /  19.6 °C 30in /  1015.6hPa NE 5.4mph /  8.7km/h 11mph /  17.7km/h 73% 0in /  0.0mm
08:09 76.5 °F /  24.7 °C 67.3 °F /  19.6 °C 30in /  1015.6hPa NE 5.5mph /  8.9km/h 11.8mph /  19km/h 73% 0in /  0.0mm
08:14 76.5 °F /  24.7 °C 67.3 °F /  19.6 °C 30in /  1015.6hPa NE 5.9mph /  9.5km/h 12mph /  19.3km/h 73% 0in /  0.0mm
08:19 76.5 °F /  24.7 °C 67.5 °F /  19.7 °C 30in /  1015.6hPa NE 6mph /  9.7km/h 12mph /  19.3km/h 73.8% 0in /  0.0mm
08:24 76.5 °F /  24.7 °C 67.5 °F /  19.7 °C 30in /  1015.6hPa NNE 6.4mph /  10.3km/h 12mph /  19.3km/h 74% 0in /  0.0mm
08:29 76.3 °F /  24.6 °C 67.5 °F /  19.7 °C 30in /  1015.6hPa NNE 6.3mph /  10.1km/h 10mph /  16.1km/h 74% 0in /  0.0mm
08:34 76.3 °F /  24.6 °C 67.5 °F /  19.7 °C 30in /  1015.8hPa NNE 5.9mph /  9.5km/h 9.2mph /  14.8km/h 74% 0in /  0.0mm
08:39 76.3 °F /  24.6 °C 67.5 °F /  19.7 °C 30in /  1015.8hPa NNE 5.9mph /  9.5km/h 11.2mph /  18km/h 74% 0in /  0.0mm
08:44 76.3 °F /  24.6 °C 67.5 °F /  19.7 °C 30in /  1015.8hPa NNE 5.9mph /  9.5km/h 11mph /  17.7km/h 74% 0in /  0.0mm
08:49 76.5 °F /  24.7 °C 67.1 °F /  19.5 °C 30in /  1015.8hPa NNE 5.8mph /  9.3km/h 9.2mph /  14.8km/h 73% 0in /  0.0mm
08:54 76.6 °F /  24.8 °C 66.9 °F /  19.4 °C 30in /  1015.8hPa NE 5.4mph /  8.7km/h 10.4mph /  16.7km/h 72.3% 0in /  0.0mm
08:59 76.8 °F /  24.9 °C 67.1 °F /  19.5 °C 30in /  1015.8hPa NE 5.7mph /  9.1km/h 10.7mph /  17.2km/h 72% 0in /  0.0mm
09:04 76.8 °F /  24.9 °C 66.9 °F /  19.4 °C 30in /  1016.0hPa NE 6.2mph /  10km/h 11mph /  17.7km/h 71.5% 0in /  0.0mm
09:09 77 °F /  25 °C 66.9 °F /  19.4 °C 30in /  1016.0hPa NE 6mph /  9.6km/h 10mph /  16.1km/h 71% 0in /  0.0mm
09:14 77.4 °F /  25.2 °C 66.9 °F /  19.4 °C 30in /  1016.0hPa NE 5.4mph /  8.7km/h 12.7mph /  20.4km/h 70.6% 0in /  0.0mm
09:19 77.5 °F /  25.3 °C 66.9 °F /  19.4 °C 30in /  1016.1hPa NE 5.5mph /  8.9km/h 13mph /  20.9km/h 70% 0in /  0.0mm
09:24 77.5 °F /  25.3 °C 67.1 °F /  19.5 °C 30in /  1016.1hPa NE 5.9mph /  9.5km/h 10.7mph /  17.2km/h 70% 0in /  0.0mm
09:29 77.9 °F /  25.5 °C 67.1 °F /  19.5 °C 30in /  1016.1hPa NNE 6mph /  9.6km/h 11mph /  17.7km/h 69.3% 0in /  0.0mm
09:34 78.1 °F /  25.6 °C 67.1 °F /  19.5 °C 30in /  1016.1hPa NE 6.2mph /  10km/h 13.8mph /  22.2km/h 69% 0in /  0.0mm
09:39 78.3 °F /  25.7 °C 67.3 °F /  19.6 °C 30in /  1016.1hPa NE 6.5mph /  10.5km/h 14mph /  22.5km/h 69% 0in /  0.0mm
09:44 78.4 °F /  25.8 °C 67.3 °F /  19.6 °C 30in /  1016.1hPa NE 7.4mph /  11.9km/h 14mph /  22.5km/h 68.9% 0in /  0.0mm
09:49 78.4 °F /  25.8 °C 67.1 °F /  19.5 °C 30in /  1016.1hPa NE 7.7mph /  12.4km/h 17.3mph /  27.8km/h 68% 0in /  0.0mm
09:54 78.6 °F /  25.9 °C 67.3 °F /  19.6 °C 30in /  1016.1hPa NE 8.7mph /  14km/h 17mph /  27.4km/h 68% 0in /  0.0mm
09:59 79 °F /  26.1 °C 67.5 °F /  19.7 °C 30in /  1016.1hPa NE 9.1mph /  14.6km/h 16.1mph /  25.9km/h 68% 0in /  0.0mm
10:04 79 °F /  26.1 °C 67.5 °F /  19.7 °C 30in /  1016.1hPa NE 10mph /  16.1km/h 16mph /  25.7km/h 68% 0in /  0.0mm
10:09 79 °F /  26.1 °C 67.3 °F /  19.6 °C 30in /  1016.1hPa NE 9.8mph /  15.7km/h 15mph /  24.1km/h 67.6% 0in /  0.0mm
10:14 79 °F /  26.1 °C 67.5 °F /  19.7 °C 30in /  1016.1hPa NE 9.2mph /  14.8km/h 18.5mph /  29.8km/h 68% 0in /  0.0mm
10:19 79 °F /  26.1 °C 67.5 °F /  19.7 °C 30in /  1016.2hPa NE 9.8mph /  15.7km/h 19mph /  30.6km/h 68% 0in /  0.0mm
10:24 78.8 °F /  26 °C 67.5 °F /  19.7 °C 30in /  1016.2hPa NE 11.2mph /  18km/h 17mph /  27.4km/h 68.3% 0in /  0.0mm
10:29 79 °F /  26.1 °C 67.8 °F /  19.9 °C 30in /  1016.2hPa NE 10.6mph /  17km/h 15mph /  24.1km/h 69% 0in /  0.0mm
10:34 79 °F /  26.1 °C 68.5 °F /  20.3 °C 30in /  1016.3hPa NE 8.7mph /  14km/h 16.1mph /  25.9km/h 70.6% 0in /  0.0mm
10:39 78.6 °F /  25.9 °C 69.1 °F /  20.6 °C 30in /  1016.3hPa ENE 8.5mph /  13.7km/h 16mph /  25.7km/h 72.6% 0in /  0.0mm
10:44 78.4 °F /  25.8 °C 69.3 °F /  20.7 °C 30in /  1016.3hPa ENE 8.1mph /  13km/h 12mph /  19.3km/h 73.4% 0in /  0.0mm
10:49 78.4 °F /  25.8 °C 69.4 °F /  20.8 °C 30in /  1016.3hPa ENE 7.7mph /  12.4km/h 13mph /  20.9km/h 74% 0in /  0.0mm
10:54 78.3 °F /  25.7 °C 69.4 °F /  20.8 °C 30in /  1016.2hPa NE 6.4mph /  10.3km/h 13mph /  20.9km/h 74.2% 0in /  0.0mm
10:59 78.3 °F /  25.7 °C 69.6 °F /  20.9 °C 30in /  1016.2hPa ENE 6.7mph /  10.8km/h 15mph /  24.1km/h 75% 0in /  0.0mm
11:04 78.1 °F /  25.6 °C 69.8 °F /  21 °C 30in /  1016.5hPa ENE 7.4mph /  11.9km/h 19.6mph /  31.5km/h 75.7% 0in /  0.0mm
11:09 77.9 °F /  25.5 °C 69.8 °F /  21 °C 30in /  1016.5hPa NE 7.6mph /  12.2km/h 20mph /  32.2km/h 76.2% 0in /  0.0mm
11:14 77.5 °F /  25.3 °C 70 °F /  21.1 °C 30in /  1016.5hPa NE 8.1mph /  13km/h 16mph /  25.7km/h 77.6% 0in /  0.0mm
11:19 77.4 °F /  25.2 °C 70.3 °F /  21.3 °C 30in /  1016.5hPa NE 8.2mph /  13.2km/h 17.3mph /  27.8km/h 79% 0in /  0.0mm
11:24 76.8 °F /  24.9 °C 70.9 °F /  21.6 °C 30in /  1016.4hPa NE 8.5mph /  13.7km/h 17.3mph /  27.8km/h 81.6% 0in /  0.0mm
11:29 76.6 °F /  24.8 °C 71.1 °F /  21.7 °C 30in /  1016.4hPa NE 8.6mph /  13.8km/h 17mph /  27.4km/h 83.1% 0in /  0.0mm
11:34 76.8 °F /  24.9 °C 71.2 °F /  21.8 °C 30in /  1016.6hPa NE 8.7mph /  14km/h 19mph /  30.6km/h 82.8% 0in /  0.0mm
11:39 76.6 °F /  24.8 °C 70.3 °F /  21.3 °C 30in /  1016.6hPa NE 9.3mph /  14.9km/h 19mph /  30.6km/h 81% 0in /  0.0mm
11:44 76.3 °F /  24.6 °C 69.4 °F /  20.8 °C 30in /  1016.6hPa NE 10.7mph /  17.2km/h 18mph /  29km/h 79.4% 0in /  0.0mm
11:49 76.3 °F /  24.6 °C 69.1 °F /  20.6 °C 30in /  1016.8hPa NE 10.8mph /  17.4km/h 17.3mph /  27.8km/h 78.4% 0in /  0.0mm
11:54 76.5 °F /  24.7 °C 69.4 °F /  20.8 °C 30in /  1016.8hPa NE 11.2mph /  18km/h 17mph /  27.4km/h 79% 0in /  0.0mm
11:59 76.8 °F /  24.9 °C 69.8 °F /  21 °C 30in /  1016.8hPa NE 10.7mph /  17.3km/h 16mph /  25.7km/h 79% 0in /  0.0mm
12:04 77 °F /  25 °C 70 °F /  21.1 °C 30in /  1016.8hPa NE 9.7mph /  15.6km/h 15mph /  24.1km/h 79% 0in /  0.0mm
12:09 77 °F /  25 °C 70.3 °F /  21.3 °C 30in /  1016.8hPa NNE 9.4mph /  15.1km/h 14mph /  22.5km/h 79.6% 0in /  0.0mm
12:14 76.8 °F /  24.9 °C 70.3 °F /  21.3 °C 30in /  1016.8hPa NNE 8.5mph /  13.7km/h 12mph /  19.3km/h 80.8% 0in /  0.0mm
12:19 77 °F /  25 °C 70.7 °F /  21.5 °C 30in /  1016.8hPa NE 8.3mph /  13.3km/h 15mph /  24.1km/h 81% 0in /  0.0mm
12:24 77.4 °F /  25.2 °C 70.3 °F /  21.3 °C 30in /  1016.5hPa NE 7.6mph /  12.2km/h 21.3mph /  34.3km/h 78.9% 0in /  0.0mm
12:29 78.4 °F /  25.8 °C 69.8 °F /  21 °C 30in /  1016.5hPa NE 8.4mph /  13.5km/h 21mph /  33.8km/h 74.9% 0in /  0.0mm
12:34 79.2 °F /  26.2 °C 69.8 °F /  21 °C 30in /  1016.5hPa NE 10.7mph /  17.2km/h 21.3mph /  34.3km/h 73% 0in /  0.0mm
12:39 79.5 °F /  26.4 °C 70 °F /  21.1 °C 30in /  1016.4hPa NE 11.2mph /  18km/h 21.9mph /  35.2km/h 72.5% 0in /  0.0mm
12:44 80.1 °F /  26.7 °C 70 °F /  21.1 °C 30in /  1016.4hPa ENE 12.5mph /  20.1km/h 22mph /  35.4km/h 71.6% 0in /  0.0mm
12:49 80.2 °F /  26.8 °C 69.6 °F /  20.9 °C 30in /  1016.5hPa ENE 12.2mph /  19.6km/h 21.3mph /  34.3km/h 70.2% 0in /  0.0mm
12:54 79.9 °F /  26.6 °C 69.3 °F /  20.7 °C 30in /  1016.5hPa ENE 11.2mph /  18km/h 21mph /  33.8km/h 70% 0in /  0.0mm
12:59 80.1 °F /  26.7 °C 68.9 °F /  20.5 °C 30in /  1016.5hPa ENE 10.9mph /  17.5km/h 19mph /  30.6km/h 68.9% 0in /  0.0mm
13:04 80.4 °F /  26.9 °C 68.5 °F /  20.3 °C 30in /  1016.7hPa NE 10.2mph /  16.4km/h 21.9mph /  35.2km/h 67.4% 0in /  0.0mm
13:09 80.2 °F /  26.8 °C 68.4 °F /  20.2 °C 30in /  1016.7hPa NE 10.7mph /  17.3km/h 23.5mph /  37.8km/h 67% 0in /  0.0mm
13:14 80.2 °F /  26.8 °C 68.2 °F /  20.1 °C 30in /  1016.7hPa ENE 12.3mph /  19.8km/h 23mph /  37km/h 66.6% 0in /  0.0mm
13:19 80.4 °F /  26.9 °C 68 °F /  20 °C 30in /  1016.7hPa NE 12.3mph /  19.8km/h 20.8mph /  33.5km/h 65.7% 0in /  0.0mm
13:24 80.4 °F /  26.9 °C 67.6 °F /  19.8 °C 30in /  1016.6hPa NE 12.3mph /  19.8km/h 22.3mph /  35.9km/h 65% 0in /  0.0mm
13:29 81 °F /  27.2 °C 67.6 °F /  19.8 °C 30in /  1016.6hPa NE 12.7mph /  20.5km/h 22mph /  35.4km/h 64.2% 0in /  0.0mm
13:34 81.1 °F /  27.3 °C 67.8 °F /  19.9 °C 30in /  1016.6hPa NE 14mph /  22.5km/h 21mph /  33.8km/h 64% 0in /  0.0mm
13:39 81.5 °F /  27.5 °C 67.8 °F /  19.9 °C 30in /  1016.4hPa NE 13.4mph /  21.5km/h 21.9mph /  35.2km/h 63.6% 0in /  0.0mm
13:44 81.7 °F /  27.6 °C 67.1 °F /  19.5 °C 30in /  1016.4hPa NE 11.4mph /  18.4km/h 22mph /  35.4km/h 61.1% 0in /  0.0mm
13:49 81.7 °F /  27.6 °C 67.5 °F /  19.7 °C 30in /  1016.4hPa ENE 11.4mph /  18.3km/h 20.8mph /  33.5km/h 61.9% 0in /  0.0mm
13:54 81.7 °F /  27.6 °C 67.3 °F /  19.6 °C 30in /  1016.4hPa ENE 11.2mph /  18km/h 21mph /  33.8km/h 61.6% 0in /  0.0mm
13:59 82 °F /  27.8 °C 67.3 °F /  19.6 °C 30in /  1016.4hPa ENE 10.7mph /  17.3km/h 20mph /  32.2km/h 61.1% 0in /  0.0mm
14:04 82.4 °F /  28 °C 67.5 °F /  19.7 °C 30in /  1016.4hPa ENE 9.7mph /  15.6km/h 19mph /  30.6km/h 60.6% 0in /  0.0mm
14:09 82.6 °F /  28.1 °C 67.5 °F /  19.7 °C 30in /  1016.4hPa ENE 9.4mph /  15.2km/h 17.3mph /  27.8km/h 60.2% 0in /  0.0mm
14:14 82.6 °F /  28.1 °C 66.9 °F /  19.4 °C 30in /  1016.4hPa ENE 8.7mph /  14km/h 17mph /  27.4km/h 59.5% 0in /  0.0mm
14:19 82.8 °F /  28.2 °C 67.1 °F /  19.5 °C 30in /  1016.4hPa NE 8.7mph /  14km/h 19.2mph /  30.9km/h 59.1% 0in /  0.0mm
14:24 82.9 °F /  28.3 °C 66.6 °F /  19.2 °C 30in /  1016.2hPa ENE 8.7mph /  14km/h 20mph /  32.2km/h 57.8% 0in /  0.0mm
14:29 82.9 °F /  28.3 °C 66 °F /  18.9 °C 30in /  1016.2hPa ENE 9.1mph /  14.6km/h 20mph /  32.2km/h 56.8% 0in /  0.0mm
14:34 82.9 °F /  28.3 °C 66 °F /  18.9 °C 30in /  1016.2hPa ENE 10.2mph /  16.4km/h 18.4mph /  29.6km/h 56.9% 0in /  0.0mm
14:39 82.8 °F /  28.2 °C 65.5 °F /  18.6 °C 30in /  1016.2hPa NE 10.2mph /  16.4km/h 20.7mph /  33.3km/h 56.1% 0in /  0.0mm
14:44 82.8 °F /  28.2 °C 64.6 °F /  18.1 °C 30in /  1016.2hPa NE 10.2mph /  16.4km/h 21mph /  33.8km/h 54.4% 0in /  0.0mm
14:49 82.6 °F /  28.1 °C 65.5 °F /  18.6 °C 30in /  1016.2hPa NE 10.4mph /  16.8km/h 21mph /  33.8km/h 56.3% 0in /  0.0mm
14:54 82.8 °F /  28.2 °C 65.8 °F /  18.8 °C 30in /  1015.9hPa Este 11.2mph /  18km/h 21.3mph /  34.3km/h 56.5% 0in /  0.0mm
14:59 82.9 °F /  28.3 °C 65.3 °F /  18.5 °C 30in /  1015.9hPa ENE 11.2mph /  18.1km/h 21mph /  33.8km/h 55.2% 0in /  0.0mm
15:04 82.9 °F /  28.3 °C 65.3 °F /  18.5 °C 30in /  1015.9hPa ENE 11.4mph /  18.4km/h 20mph /  32.2km/h 55.4% 0in /  0.0mm
15:09 83.5 °F /  28.6 °C 65.3 °F /  18.5 °C 30in /  1015.9hPa Este 10.7mph /  17.3km/h 17.5mph /  28.2km/h 54.7% 0in /  0.0mm
15:14 83.1 °F /  28.4 °C 64.2 °F /  17.9 °C 30in /  1015.9hPa ENE 8.7mph /  14km/h 19.6mph /  31.5km/h 52.9% 0in /  0.0mm
15:19 83.3 °F /  28.5 °C 63.9 °F /  17.7 °C 30in /  1015.9hPa NE 9.3mph /  15km/h 21.3mph /  34.3km/h 52.1% 0in /  0.0mm
15:24 83.5 °F /  28.6 °C 64.2 °F /  17.9 °C 30in /  1015.8hPa NE 11.2mph /  18km/h 21mph /  33.8km/h 52.3% 0in /  0.0mm
15:29 83.3 °F /  28.5 °C 64.2 °F /  17.9 °C 30in /  1015.8hPa NE 10.9mph /  17.6km/h 20.1mph /  32.3km/h 52.6% 0in /  0.0mm
15:34 83.1 °F /  28.4 °C 64.4 °F /  18 °C 30in /  1015.8hPa ENE 10.2mph /  16.4km/h 21mph /  33.8km/h 53.3% 0in /  0.0mm
15:39 83.5 °F /  28.6 °C 61.5 °F /  16.4 °C 30in /  1015.6hPa NE 10.6mph /  17km/h 21mph /  33.8km/h 47.8% 0in /  0.0mm
15:44 83.7 °F /  28.7 °C 63 °F /  17.2 °C 30in /  1015.6hPa ENE 11.8mph /  19km/h 21.9mph /  35.2km/h 50% 0in /  0.0mm
15:49 83.7 °F /  28.7 °C 63.5 °F /  17.5 °C 30in /  1015.6hPa ENE 11.7mph /  18.8km/h 22mph /  35.4km/h 51% 0in /  0.0mm
15:54 83.7 °F /  28.7 °C 63.1 °F /  17.3 °C 30in /  1015.2hPa Este 11.4mph /  18.4km/h 19.7mph /  31.7km/h 50.2% 0in /  0.0mm
15:59 83.8 °F /  28.8 °C 63.7 °F /  17.6 °C 30in /  1015.2hPa ENE 11.1mph /  17.8km/h 20mph /  32.2km/h 50.9% 0in /  0.0mm
16:04 83.8 °F /  28.8 °C 63.7 °F /  17.6 °C 30in /  1015.3hPa ENE 10.2mph /  16.4km/h 23mph /  37km/h 50.8% 0in /  0.0mm
16:09 83.8 °F /  28.8 °C 63.9 °F /  17.7 °C 30in /  1015.3hPa ENE 10.1mph /  16.3km/h 23mph /  37km/h 51.2% 0in /  0.0mm
16:14 83.8 °F /  28.8 °C 63.9 °F /  17.7 °C 30in /  1015.3hPa ENE 10mph /  16.1km/h 23mph /  37km/h 51.2% 0in /  0.0mm
16:19 84 °F /  28.9 °C 63.7 °F /  17.6 °C 30in /  1015.3hPa ENE 9.8mph /  15.8km/h 16mph /  25.7km/h 50.7% 0in /  0.0mm
16:24 84 °F /  28.9 °C 63.9 °F /  17.7 °C 30in /  1015.3hPa NE 9.2mph /  14.8km/h 18.4mph /  29.6km/h 50.8% 0in /  0.0mm
16:29 84 °F /  28.9 °C 63.9 °F /  17.7 °C 30in /  1015.3hPa NE 9.2mph /  14.8km/h 18.5mph /  29.8km/h 51% 0in /  0.0mm
16:34 83.7 °F /  28.7 °C 63.9 °F /  17.7 °C 30in /  1015.3hPa ENE 9.2mph /  14.8km/h 19.7mph /  31.7km/h 51.3% 0in /  0.0mm
16:39 83.5 °F /  28.6 °C 63.3 °F /  17.4 °C 30in /  1015.2hPa NE 9.4mph /  15.2km/h 20.7mph /  33.3km/h 50.8% 0in /  0.0mm
16:44 83.5 °F /  28.6 °C 64.9 °F /  18.3 °C 30in /  1015.2hPa ENE 10.2mph /  16.4km/h 21mph /  33.8km/h 53.6% 0in /  0.0mm
16:49 83.8 °F /  28.8 °C 64.9 °F /  18.3 °C 30in /  1015.3hPa NE 10.1mph /  16.2km/h 16.3mph /  26.2km/h 53% 0in /  0.0mm
16:54 84 °F /  28.9 °C 64.9 °F /  18.3 °C 30in /  1015.3hPa NE 9.7mph /  15.6km/h 20.8mph /  33.5km/h 53% 0in /  0.0mm
16:59 84 °F /  28.9 °C 65.1 °F /  18.4 °C 30in /  1015.3hPa NE 9.8mph /  15.7km/h 21mph /  33.8km/h 53.2% 0in /  0.0mm
17:04 83.7 °F /  28.7 °C 65.3 °F /  18.5 °C 30in /  1015.3hPa ENE 10mph /  16.1km/h 24.2mph /  38.9km/h 54% 0in /  0.0mm
17:09 83.7 °F /  28.7 °C 64.9 °F /  18.3 °C 30in /  1015.1hPa ENE 10.1mph /  16.2km/h 24mph /  38.6km/h 53.5% 0in /  0.0mm
17:14 83.5 °F /  28.6 °C 65.5 °F /  18.6 °C 30in /  1015.1hPa ENE 10.2mph /  16.4km/h 17.3mph /  27.8km/h 54.7% 0in /  0.0mm
17:19 83.7 °F /  28.7 °C 65.7 °F /  18.7 °C 30in /  1015.1hPa NE 10.2mph /  16.4km/h 20.8mph /  33.5km/h 54.8% 0in /  0.0mm
17:24 83.1 °F /  28.4 °C 66 °F /  18.9 °C 30in /  1014.9hPa NE 10.2mph /  16.4km/h 21mph /  33.8km/h 56.2% 0in /  0.0mm
17:29 83.1 °F /  28.4 °C 65.8 °F /  18.8 °C 30in /  1014.9hPa ENE 10.1mph /  16.2km/h 20mph /  32.2km/h 56% 0in /  0.0mm
17:34 82.9 °F /  28.3 °C 66.2 °F /  19 °C 30in /  1014.9hPa NE 9.7mph /  15.6km/h 17.3mph /  27.8km/h 56.9% 0in /  0.0mm
17:39 82.9 °F /  28.3 °C 66 °F /  18.9 °C 30in /  1014.9hPa NE 9.8mph /  15.8km/h 18.5mph /  29.8km/h 56.9% 0in /  0.0mm
17:44 82.8 °F /  28.2 °C 65.5 °F /  18.6 °C 30in /  1014.9hPa ENE 10.2mph /  16.4km/h 19mph /  30.6km/h 56.1% 0in /  0.0mm
17:49 82.6 °F /  28.1 °C 66 °F /  18.9 °C 30in /  1015.0hPa ENE 10.2mph /  16.4km/h 18.1mph /  29.1km/h 57.4% 0in /  0.0mm
17:54 82 °F /  27.8 °C 66 °F /  18.9 °C 30in /  1015.0hPa ENE 10.2mph /  16.4km/h 19.7mph /  31.7km/h 58.3% 0in /  0.0mm
17:59 81.9 °F /  27.7 °C 65.5 °F /  18.6 °C 30in /  1015.0hPa NE 10.1mph /  16.2km/h 20mph /  32.2km/h 57.7% 0in /  0.0mm
18:04 81.9 °F /  27.7 °C 66 °F /  18.9 °C 30in /  1015.0hPa ENE 9.7mph /  15.6km/h 18.4mph /  29.6km/h 58.7% 0in /  0.0mm
18:09 82 °F /  27.8 °C 66 °F /  18.9 °C 30in /  1015.0hPa ENE 9.4mph /  15.2km/h 18mph /  29km/h 58.4% 0in /  0.0mm
18:14 82.2 °F /  27.9 °C 65.7 °F /  18.7 °C 30in /  1015.0hPa ENE 8.7mph /  14km/h 17mph /  27.4km/h 57.2% 0in /  0.0mm
18:19 82.6 °F /  28.1 °C 65.7 °F /  18.7 °C 30in /  1015.0hPa ENE 8.6mph /  13.9km/h 17.5mph /  28.2km/h 57% 0in /  0.0mm
18:24 82.2 °F /  27.9 °C 65.3 °F /  18.5 °C 30in /  1015.0hPa ENE 8.5mph /  13.7km/h 17.3mph /  27.8km/h 56.8% 0in /  0.0mm
18:29 82 °F /  27.8 °C 65.3 °F /  18.5 °C 30in /  1015.0hPa NE 8.8mph /  14.1km/h 20.7mph /  33.3km/h 56.9% 0in /  0.0mm
18:34 81.7 °F /  27.6 °C 65.5 °F /  18.6 °C 30in /  1015.2hPa NE 9.7mph /  15.6km/h 21mph /  33.8km/h 58.1% 0in /  0.0mm
18:39 81.3 °F /  27.4 °C 65.7 °F /  18.7 °C 30in /  1015.2hPa NE 9.8mph /  15.8km/h 16.1mph /  25.9km/h 59.1% 0in /  0.0mm
18:44 81.5 °F /  27.5 °C 66.2 °F /  19 °C 30in /  1015.2hPa ENE 10.2mph /  16.4km/h 16.8mph /  27km/h 60% 0in /  0.0mm
18:49 81.5 °F /  27.5 °C 66.2 °F /  19 °C 30in /  1015.2hPa NE 10.1mph /  16.3km/h 17.3mph /  27.8km/h 60% 0in /  0.0mm
18:54 81.7 °F /  27.6 °C 66.2 °F /  19 °C 30in /  1015.2hPa NE 10mph /  16.1km/h 17mph /  27.4km/h 59.5% 0in /  0.0mm
18:59 81.7 °F /  27.6 °C 66.4 °F /  19.1 °C 30in /  1015.2hPa NE 9.6mph /  15.5km/h 16.1mph /  25.9km/h 60% 0in /  0.0mm
19:04 81.7 °F /  27.6 °C 66 °F /  18.9 °C 30in /  1015.2hPa ENE 8.7mph /  14km/h 18.4mph /  29.6km/h 59.4% 0in /  0.0mm
19:09 81.5 °F /  27.5 °C 66.2 °F /  19 °C 30in /  1015.2hPa ENE 8.7mph /  14km/h 18mph /  29km/h 60% 0in /  0.0mm
19:14 81.7 °F /  27.6 °C 66 °F /  18.9 °C 30in /  1015.2hPa ENE 8.7mph /  14km/h 16.1mph /  25.9km/h 59.2% 0in /  0.0mm
19:19 81.3 °F /  27.4 °C 65.8 °F /  18.8 °C 30in /  1015.2hPa ENE 8.7mph /  14km/h 16mph /  25.7km/h 59.6% 0in /  0.0mm
19:24 81.1 °F /  27.3 °C 65.8 °F /  18.8 °C 30in /  1015.2hPa ENE 8.7mph /  14km/h 15mph /  24.1km/h 59.9% 0in /  0.0mm
19:29 81 °F /  27.2 °C 65.5 °F /  18.6 °C 30in /  1015.2hPa ENE 8.6mph /  13.9km/h 15mph /  24.1km/h 59.5% 0in /  0.0mm
19:34 81 °F /  27.2 °C 65.8 °F /  18.8 °C 30in /  1015.3hPa NE 8.5mph /  13.7km/h 17.3mph /  27.8km/h 60.4% 0in /  0.0mm
19:39 80.8 °F /  27.1 °C 66 °F /  18.9 °C 30in /  1015.3hPa NE 8.4mph /  13.5km/h 17mph /  27.4km/h 61% 0in /  0.0mm
19:44 80.8 °F /  27.1 °C 66 °F /  18.9 °C 30in /  1015.3hPa ENE 8.1mph /  13km/h 15.2mph /  24.5km/h 61% 0in /  0.0mm
19:49 80.8 °F /  27.1 °C 66 °F /  18.9 °C 30in /  1015.3hPa ENE 7.6mph /  12.3km/h 15mph /  24.1km/h 61% 0in /  0.0mm
19:54 81 °F /  27.2 °C 66.2 °F /  19 °C 30in /  1015.3hPa ENE 6.4mph /  10.3km/h 14mph /  22.5km/h 61% 0in /  0.0mm
19:59 81 °F /  27.2 °C 66.6 °F /  19.2 °C 30in /  1015.3hPa ENE 6.3mph /  10.1km/h 13mph /  20.9km/h 61.8% 0in /  0.0mm
20:04 81 °F /  27.2 °C 66.4 °F /  19.1 °C 30in /  1015.5hPa ENE 5.9mph /  9.5km/h 13mph /  20.9km/h 61.3% 0in /  0.0mm
20:09 80.8 °F /  27.1 °C 66 °F /  18.9 °C 30in /  1015.5hPa ENE 6mph /  9.6km/h 13mph /  20.9km/h 60.9% 0in /  0.0mm
20:14 80.4 °F /  26.9 °C 65.7 °F /  18.7 °C 30in /  1015.5hPa NE 6.2mph /  10km/h 13mph /  20.9km/h 61% 0in /  0.0mm
20:19 80.4 °F /  26.9 °C 66 °F /  18.9 °C 30in /  1015.5hPa ENE 6.2mph /  10km/h 12.3mph /  19.8km/h 61.7% 0in /  0.0mm
20:24 80.2 °F /  26.8 °C 66 °F /  18.9 °C 30in /  1015.5hPa NE 6.2mph /  10km/h 13mph /  20.9km/h 62.2% 0in /  0.0mm
20:29 79.9 °F /  26.6 °C 66.2 °F /  19 °C 30in /  1015.5hPa NE 6.3mph /  10.1km/h 13mph /  20.9km/h 63% 0in /  0.0mm
20:34 79.9 °F /  26.6 °C 66.4 °F /  19.1 °C 30in /  1015.7hPa NE 6.4mph /  10.3km/h 13mph /  20.9km/h 63.4% 0in /  0.0mm
20:39 79.7 °F /  26.5 °C 66.6 °F /  19.2 °C 30in /  1015.7hPa NE 6.3mph /  10.1km/h 12mph /  19.3km/h 64% 0in /  0.0mm
20:44 79.5 °F /  26.4 °C 66.6 °F /  19.2 °C 30in /  1015.7hPa NE 5.9mph /  9.5km/h 12.3mph /  19.8km/h 64.8% 0in /  0.0mm
20:49 79.3 °F /  26.3 °C 66 °F /  18.9 °C 30in /  1015.9hPa NE 6.3mph /  10.2km/h 14mph /  22.5km/h 64.2% 0in /  0.0mm
20:54 79.2 °F /  26.2 °C 65.8 °F /  18.8 °C 30in /  1015.9hPa NE 7.6mph /  12.2km/h 14mph /  22.5km/h 64% 0in /  0.0mm
20:59 79.2 °F /  26.2 °C 65.8 °F /  18.8 °C 30in /  1015.9hPa NE 7.3mph /  11.7km/h 13mph /  20.9km/h 64% 0in /  0.0mm
21:04 79 °F /  26.1 °C 66.2 °F /  19 °C 30in /  1016.0hPa NE 6.4mph /  10.3km/h 11.2mph /  18km/h 65.1% 0in /  0.0mm
21:09 78.6 °F /  25.9 °C 66.6 °F /  19.2 °C 30in /  1016.0hPa NE 6.3mph /  10.2km/h 12mph /  19.3km/h 66.5% 0in /  0.0mm
21:14 78.4 °F /  25.8 °C 66.7 °F /  19.3 °C 30in /  1016.0hPa NE 6.2mph /  10km/h 12mph /  19.3km/h 67.4% 0in /  0.0mm
21:19 78.4 °F /  25.8 °C 66.9 °F /  19.4 °C 30in /  1016.3hPa NE 6.3mph /  10.1km/h 12mph /  19.3km/h 68% 0in /  0.0mm
21:24 78.3 °F /  25.7 °C 66.9 °F /  19.4 °C 30in /  1016.3hPa NE 6.4mph /  10.3km/h 12mph /  19.3km/h 68.2% 0in /  0.0mm
21:29 78.1 °F /  25.6 °C 67.1 °F /  19.5 °C 30in /  1016.3hPa NE 6.3mph /  10.2km/h 11mph /  17.7km/h 69% 0in /  0.0mm
21:34 78.1 °F /  25.6 °C 67.1 °F /  19.5 °C 30in /  1016.5hPa NE 6.2mph /  10km/h 10.4mph /  16.7km/h 69% 0in /  0.0mm
21:39 77.9 °F /  25.5 °C 66.9 °F /  19.4 °C 30in /  1016.5hPa ENE 6.2mph /  9.9km/h 10mph /  16.1km/h 69% 0in /  0.0mm
21:44 77.7 °F /  25.4 °C 66.7 °F /  19.3 °C 30in /  1016.5hPa NE 5.9mph /  9.5km/h 8.5mph /  13.7km/h 69% 0in /  0.0mm
21:49 77.7 °F /  25.4 °C 67.1 °F /  19.5 °C 30in /  1016.7hPa NE 5.7mph /  9.2km/h 9.2mph /  14.8km/h 69.9% 0in /  0.0mm
21:54 77.5 °F /  25.3 °C 67.1 °F /  19.5 °C 30in /  1016.7hPa NE 5.2mph /  8.4km/h 10.4mph /  16.7km/h 70% 0in /  0.0mm
21:59 77.5 °F /  25.3 °C 66.9 °F /  19.4 °C 30in /  1016.7hPa NE 5.7mph /  9.1km/h 9.7mph /  15.6km/h 70% 0in /  0.0mm
22:04 77.4 °F /  25.2 °C 66.7 °F /  19.3 °C 30in /  1016.9hPa NE 6.2mph /  10km/h 10mph /  16.1km/h 70% 0in /  0.0mm
22:09 77.4 °F /  25.2 °C 67.1 °F /  19.5 °C 30in /  1016.9hPa NE 6.2mph /  9.9km/h 9.2mph /  14.8km/h 70.8% 0in /  0.0mm
22:14 77.4 °F /  25.2 °C 67.3 °F /  19.6 °C 30in /  1016.9hPa NE 5.9mph /  9.5km/h 9mph /  14.5km/h 71% 0in /  0.0mm
22:19 77.4 °F /  25.2 °C 67.3 °F /  19.6 °C 30in /  1017.1hPa NE 5.6mph /  9km/h 8.1mph /  13km/h 71% 0in /  0.0mm
22:24 77.4 °F /  25.2 °C 67.3 °F /  19.6 °C 30in /  1017.1hPa NE 4.7mph /  7.6km/h 8mph /  12.9km/h 71% 0in /  0.0mm
22:29 77.4 °F /  25.2 °C 67.3 °F /  19.6 °C 30in /  1017.1hPa ENE 4.5mph /  7.3km/h 7.4mph /  11.9km/h 71% 0in /  0.0mm
22:34 77.4 °F /  25.2 °C 67.1 °F /  19.5 °C 30in /  1017.2hPa NE 4mph /  6.5km/h 7.4mph /  11.9km/h 71% 0in /  0.0mm
22:39 77.2 °F /  25.1 °C 66.9 °F /  19.4 °C 30in /  1017.2hPa NE 4mph /  6.5km/h 7mph /  11.3km/h 71% 0in /  0.0mm
22:44 77.2 °F /  25.1 °C 67.5 °F /  19.7 °C 30in /  1017.2hPa NE 4mph /  6.5km/h 6.2mph /  10km/h 71.9% 0in /  0.0mm
22:49 77.2 °F /  25.1 °C 67.5 °F /  19.7 °C 30in /  1017.3hPa ENE 3.8mph /  6.1km/h 6mph /  9.7km/h 72% 0in /  0.0mm
22:54 77.2 °F /  25.1 °C 67.5 °F /  19.7 °C 30in /  1017.3hPa NE 3.1mph /  5km/h 5.2mph /  8.4km/h 72% 0in /  0.0mm
22:59 77 °F /  25 °C 67.5 °F /  19.7 °C 30in /  1017.3hPa NE 3mph /  4.9km/h 5.8mph /  9.3km/h 72% 0in /  0.0mm
23:04 77 °F /  25 °C 67.3 °F /  19.6 °C 30.1in /  1017.5hPa NE 2.9mph /  4.6km/h 6mph /  9.7km/h 72% 0in /  0.0mm
23:09 76.8 °F /  24.9 °C 67.3 °F /  19.6 °C 30.1in /  1017.5hPa NE 3.1mph /  5km/h 6.9mph /  11.1km/h 72.2% 0in /  0.0mm
23:14 76.8 °F /  24.9 °C 67.5 °F /  19.7 °C 30.1in /  1017.5hPa ENE 3.6mph /  5.8km/h 7mph /  11.3km/h 73% 0in /  0.0mm
23:19 76.8 °F /  24.9 °C 67.5 °F /  19.7 °C 30.1in /  1017.5hPa ENE 3.6mph /  5.8km/h 5.8mph /  9.3km/h 73% 0in /  0.0mm
23:24 76.6 °F /  24.8 °C 67.3 °F /  19.6 °C 30.1in /  1017.5hPa ENE 3.6mph /  5.8km/h 6mph /  9.7km/h 73% 0in /  0.0mm
23:29 76.6 °F /  24.8 °C 67.3 °F /  19.6 °C 30.1in /  1017.5hPa NE 3.5mph /  5.6km/h 5.2mph /  8.4km/h 73% 0in /  0.0mm
23:34 76.6 °F /  24.8 °C 67.3 °F /  19.6 °C 30.1in /  1017.5hPa NE 3.1mph /  5km/h 5.2mph /  8.4km/h 73% 0in /  0.0mm
23:39 76.6 °F /  24.8 °C 67.3 °F /  19.6 °C 30.1in /  1017.5hPa NE 3.1mph /  5km/h 5.9mph /  9.5km/h 73% 0in /  0.0mm
23:44 76.6 °F /  24.8 °C 67.5 °F /  19.7 °C 30.1in /  1017.5hPa ENE 3.1mph /  5km/h 6mph /  9.7km/h 73% 0in /  0.0mm
23:49 76.6 °F /  24.8 °C 67.3 °F /  19.6 °C 30.1in /  1017.5hPa NE 3mph /  4.9km/h 5mph /  8km/h 73% 0in /  0.0mm
23:54 76.6 °F /  24.8 °C 67.3 °F /  19.6 °C 30.1in /  1017.5hPa NE 2.9mph /  4.7km/h 5mph /  8km/h 73% 0in /  0.0mm
23:59 76.6 °F /  24.8 °C 67.3 °F /  19.6 °C 30.1in /  1017.5hPa ENE 2.6mph /  4.2km/h 4.6mph /  7.4km/h 73% 0in /  0.0mm
Murcia-Puente Tocinos, España
Compliments of Weather Underground - 3 mb

La estación de MeteoMurcia.com, publica sus datos en los siguientes proyectos:

Weather Underground PWS IMURCIAP2 Meteoclimatic www.awekas.at

W3Counter
Web Analytics